createdAt,value
2022-12-04T00:02:13.580Z,101691.38
2022-12-04T00:04:39.948Z,101695.66
2022-12-04T00:07:06.373Z,101692.00
2022-12-04T00:09:32.753Z,101696.41
2022-12-04T00:11:59.059Z,101702.78
2022-12-04T00:14:25.379Z,101702.78
2022-12-04T00:16:51.799Z,101707.28
2022-12-04T00:19:18.163Z,101705.03
2022-12-04T00:21:45.251Z,101697.16
2022-12-04T00:24:11.650Z,101694.25
2022-12-04T00:26:37.964Z,101688.50
2022-12-04T00:29:04.523Z,101691.38
2022-12-04T00:31:31.046Z,101681.34
2022-12-04T00:33:57.642Z,101687.03
2022-12-04T00:36:24.622Z,101691.25
2022-12-04T00:38:50.933Z,101682.50
2022-12-04T00:41:17.864Z,101689.78
2022-12-04T00:43:45.676Z,101681.03
2022-12-04T00:46:12.261Z,101681.78
2022-12-04T00:48:38.612Z,101682.50
2022-12-04T00:51:05.183Z,101681.78
2022-12-04T00:53:31.591Z,101678.88
2022-12-04T00:55:57.915Z,101683.25
2022-12-04T00:58:24.477Z,101689.78
2022-12-04T01:00:50.950Z,101685.50
2022-12-04T01:03:17.402Z,101692.78
2022-12-04T01:05:44.554Z,101676.88
2022-12-04T01:08:10.926Z,101679.75
2022-12-04T01:10:40.310Z,101674.00
2022-12-04T01:13:06.624Z,101677.50
2022-12-04T01:15:32.932Z,101682.50
2022-12-04T01:17:59.291Z,101675.25
2022-12-04T01:20:25.617Z,101678.88
2022-12-04T01:22:51.961Z,101676.63
2022-12-04T01:25:18.280Z,101686.03
2022-12-04T01:27:44.596Z,101677.41
2022-12-04T01:30:11.085Z,101683.91
2022-12-04T01:32:37.388Z,101675.25
2022-12-04T01:35:03.776Z,101682.50
2022-12-04T01:37:30.845Z,101682.63
2022-12-04T01:39:57.390Z,101681.16
2022-12-04T01:42:23.821Z,101684.16
2022-12-04T01:45:08.792Z,101673.25
2022-12-04T01:47:35.096Z,101674.00
2022-12-04T01:50:01.407Z,101664.72
2022-12-04T01:52:27.729Z,101653.97
2022-12-04T01:54:58.559Z,101662.59
2022-12-04T01:57:25.433Z,101661.09
2022-12-04T01:59:53.590Z,101652.47
2022-12-04T02:02:22.268Z,101662.59
2022-12-04T02:04:48.637Z,101662.47
2022-12-04T02:07:14.954Z,101660.22
2022-12-04T02:09:41.296Z,101653.72
2022-12-04T02:12:19.798Z,101646.59
2022-12-04T02:14:52.465Z,101656.59
2022-12-04T02:17:48.198Z,101655.22
2022-12-04T02:20:22.888Z,101649.34
2022-12-04T02:22:57.967Z,101644.34
2022-12-04T02:25:24.622Z,101647.84
2022-12-04T02:27:52.908Z,101650.72
2022-12-04T02:30:19.229Z,101649.25
2022-12-04T02:32:46.361Z,101642.75
2022-12-04T02:35:23.231Z,101645.63
2022-12-04T02:37:50.488Z,101636.97
2022-12-04T02:40:20.128Z,101634.72
2022-12-04T02:43:00.078Z,101637.59
2022-12-04T02:45:27.300Z,101629.59
2022-12-04T02:47:53.618Z,101623.97
2022-12-04T02:50:22.119Z,101629.72
2022-12-04T02:52:50.479Z,101616.06
2022-12-04T02:55:21.647Z,101613.31
2022-12-04T02:57:51.325Z,101614.69
2022-12-04T03:00:17.769Z,101618.94
2022-12-04T03:02:56.953Z,101619.72
2022-12-04T03:05:25.463Z,101618.19
2022-12-04T03:07:56.402Z,101615.19
2022-12-04T03:10:24.285Z,101615.97
2022-12-04T03:12:52.116Z,101611.69
2022-12-04T03:15:20.226Z,101605.81
2022-12-04T03:17:53.491Z,101585.66
2022-12-04T03:20:19.800Z,101592.81
2022-12-04T03:22:46.149Z,101575.44
2022-12-04T03:25:13.829Z,101581.19
2022-12-04T03:27:48.633Z,101585.44
2022-12-04T03:30:15.867Z,101605.72
2022-12-04T03:32:52.804Z,101614.22
2022-12-04T03:35:20.632Z,101611.47
2022-12-04T03:38:03.377Z,101600.69
2022-12-04T03:40:34.040Z,101619.59
2022-12-04T03:43:02.099Z,101608.81
2022-12-04T03:45:36.715Z,101617.47
2022-12-04T03:48:05.328Z,101615.97
2022-12-04T03:50:38.490Z,101615.97
2022-12-04T03:53:04.752Z,101621.72
2022-12-04T03:55:32.833Z,101617.47
2022-12-04T03:57:59.821Z,101610.31
2022-12-04T04:00:26.216Z,101602.44
2022-12-04T04:02:57.361Z,101611.06
2022-12-04T04:05:23.951Z,101611.81
2022-12-04T04:07:51.523Z,101600.41
2022-12-04T04:10:18.984Z,101595.41
2022-12-04T04:13:12.497Z,101605.53
2022-12-04T04:15:58.253Z,101600.41
2022-12-04T04:18:43.090Z,101608.41
2022-12-04T04:21:28.144Z,101604.78
2022-12-04T04:24:12.856Z,101598.91
2022-12-04T04:26:40.497Z,101591.66
2022-12-04T04:29:06.818Z,101603.19
2022-12-04T04:31:51.309Z,101603.06
2022-12-04T04:34:36.821Z,101595.91
2022-12-04T04:37:11.518Z,101591.66
2022-12-04T04:39:37.768Z,101595.91
2022-12-04T04:42:22.589Z,101597.41
2022-12-04T04:45:00.877Z,101591.66
2022-12-04T04:47:34.592Z,101597.41
2022-12-04T04:50:01.471Z,101601.78
2022-12-04T04:52:27.794Z,101603.28
2022-12-04T04:54:54.224Z,101597.41
2022-12-04T04:57:27.502Z,101591.66
2022-12-04T04:59:54.253Z,101591.66
2022-12-04T05:02:20.796Z,101592.41
2022-12-04T05:04:47.158Z,101603.19
2022-12-04T05:07:13.478Z,101602.44
2022-12-04T05:09:41.393Z,101597.53
2022-12-04T05:12:07.882Z,101603.28
2022-12-04T05:14:34.196Z,101598.28
2022-12-04T05:17:02.117Z,101591.13
2022-12-04T05:19:50.215Z,101600.41
2022-12-04T05:22:16.520Z,101600.41
2022-12-04T05:24:42.881Z,101598.28
2022-12-04T05:27:09.216Z,101598.16
2022-12-04T05:29:36.054Z,101603.91
2022-12-04T05:32:02.528Z,101593.16
2022-12-04T05:34:28.851Z,101594.66
2022-12-04T05:36:55.164Z,101598.28
2022-12-04T05:39:21.480Z,101600.41
2022-12-04T05:41:47.805Z,101593.91
2022-12-04T05:44:14.138Z,101597.66
2022-12-04T05:46:40.544Z,101596.25
2022-12-04T05:49:06.932Z,101591.91
2022-12-04T05:51:33.351Z,101597.66
2022-12-04T05:53:59.665Z,101598.41
2022-12-04T05:56:26.005Z,101602.75
2022-12-04T05:58:52.328Z,101605.63
2022-12-04T06:01:19.433Z,101599.75
2022-12-04T06:03:45.753Z,101585.38
2022-12-04T06:06:21.147Z,101590.38
2022-12-04T06:08:48.515Z,101590.38
2022-12-04T06:11:15.894Z,101591.91
2022-12-04T06:13:42.422Z,101589.03
2022-12-04T06:16:35.184Z,101581.13
2022-12-04T06:19:02.345Z,101591.91
2022-12-04T06:21:29.654Z,101591.91
2022-12-04T06:23:55.982Z,101591.91
2022-12-04T06:26:22.302Z,101596.88
2022-12-04T06:28:48.619Z,101596.16
2022-12-04T06:31:15.382Z,101596.16
2022-12-04T06:33:41.831Z,101602.63
2022-12-04T06:36:09.061Z,101599.13
2022-12-04T06:38:35.562Z,101594.91
2022-12-04T06:41:05.437Z,101588.25
2022-12-04T06:43:31.758Z,101588.38
2022-12-04T06:46:04.839Z,101586.25
2022-12-04T06:48:31.253Z,101593.50
2022-12-04T06:51:00.905Z,101599.25
2022-12-04T06:53:27.778Z,101593.38
2022-12-04T06:55:54.860Z,101588.38
2022-12-04T06:58:21.175Z,101596.38
2022-12-04T07:00:47.583Z,101589.13
2022-12-04T07:03:13.947Z,101596.38
2022-12-04T07:05:40.294Z,101594.91
2022-12-04T07:08:06.663Z,101599.13
2022-12-04T07:10:34.750Z,101596.25
2022-12-04T07:13:01.086Z,101601.38
2022-12-04T07:15:27.455Z,101593.38
2022-12-04T07:17:53.773Z,101587.63
2022-12-04T07:20:20.096Z,101597.66
2022-12-04T07:22:46.414Z,101589.03
2022-12-04T07:25:12.737Z,101586.13
2022-12-04T07:27:39.060Z,101603.41
2022-12-04T07:30:08.786Z,101599.13
2022-12-04T07:32:37.535Z,101598.41
2022-12-04T07:35:04.285Z,101594.13
2022-12-04T07:37:30.601Z,101602.13
2022-12-04T07:39:57.284Z,101597.13
2022-12-04T07:42:24.442Z,101603.63
2022-12-04T07:44:50.927Z,101600.13
2022-12-04T07:47:17.247Z,101616.53
2022-12-04T07:49:43.568Z,101613.78
2022-12-04T07:52:09.890Z,101613.88
2022-12-04T07:54:36.233Z,101606.63
2022-12-04T07:57:02.553Z,101616.66
2022-12-04T07:59:28.876Z,101604.38
2022-12-04T08:01:55.382Z,101615.13
2022-12-04T08:04:21.816Z,101609.38
2022-12-04T08:06:48.149Z,101607.16
2022-12-04T08:09:14.574Z,101608.25
2022-12-04T08:11:40.954Z,101602.38
2022-12-04T08:14:08.780Z,101613.88
2022-12-04T08:16:35.201Z,101618.78
2022-12-04T08:19:01.562Z,101622.41
2022-12-04T08:21:28.492Z,101618.00
2022-12-04T08:23:55.038Z,101615.13
2022-12-04T08:26:21.945Z,101607.88
2022-12-04T08:28:48.254Z,101612.16
2022-12-04T08:31:15.448Z,101618.78
2022-12-04T08:33:41.899Z,101618.78
2022-12-04T08:36:08.820Z,101623.16
2022-12-04T08:38:35.384Z,101618.13
2022-12-04T08:41:02.044Z,101616.88
2022-12-04T08:43:28.383Z,101624.88
2022-12-04T08:45:58.090Z,101618.91
2022-12-04T08:48:24.484Z,101622.41
2022-12-04T08:50:50.838Z,101624.78
2022-12-04T08:53:17.368Z,101622.53
2022-12-04T08:55:43.691Z,101613.88
2022-12-04T08:58:10.025Z,101605.13
2022-12-04T09:00:36.336Z,101603.63
2022-12-04T09:03:02.676Z,101610.03
2022-12-04T09:05:32.034Z,101611.63
2022-12-04T09:07:58.510Z,101604.38
2022-12-04T09:10:24.860Z,101617.63
2022-12-04T09:12:51.177Z,101614.94
2022-12-04T09:15:17.511Z,101618.00
2022-12-04T09:17:43.823Z,101621.94
2022-12-04T09:20:10.235Z,101625.16
2022-12-04T09:23:02.053Z,101622.38
2022-12-04T09:25:22.844Z,101627.50
2022-12-04T09:27:49.160Z,101616.56
2022-12-04T09:30:15.488Z,101623.91
2022-12-04T09:32:41.888Z,101617.75
2022-12-04T09:35:09.207Z,101620.84
2022-12-04T09:37:38.538Z,101612.31
2022-12-04T09:40:05.345Z,101610.09
2022-12-04T09:42:34.639Z,101623.22
2022-12-04T09:45:03.778Z,101621.72
2022-12-04T09:47:34.241Z,101610.22
2022-12-04T09:50:01.960Z,101613.09
2022-12-04T09:52:39.276Z,101611.69
2022-12-04T09:55:05.934Z,101608.06
2022-12-04T09:57:45.236Z,101604.47
2022-12-04T10:00:12.531Z,101601.56
2022-12-04T10:02:39.478Z,101595.91
2022-12-04T10:05:06.066Z,101598.03
2022-12-04T10:07:33.685Z,101590.16
2022-12-04T10:10:03.154Z,101581.63
2022-12-04T10:12:50.294Z,101586.66
2022-12-04T10:15:26.769Z,101570.66
2022-12-04T10:18:28.535Z,101573.84
2022-12-04T10:21:03.980Z,101571.72
2022-12-04T10:23:49.688Z,101560.25
2022-12-04T10:26:16.590Z,101563.69
2022-12-04T10:28:46.016Z,101561.16
2022-12-04T10:31:14.880Z,101559.88
2022-12-04T10:33:45.038Z,101564.91
2022-12-04T10:36:12.164Z,101565.09
2022-12-04T10:38:55.430Z,101562.16
2022-12-04T10:41:24.797Z,101561.47
2022-12-04T10:43:51.188Z,101556.88
2022-12-04T10:46:27.683Z,101566.00
2022-12-04T10:49:01.115Z,101568.16
2022-12-04T10:51:28.557Z,101557.00
2022-12-04T10:53:55.244Z,101551.38
2022-12-04T10:56:22.322Z,101559.38
2022-12-04T10:58:58.486Z,101548.06
2022-12-04T11:01:24.886Z,101549.56
2022-12-04T11:04:02.017Z,101548.81
2022-12-04T11:06:28.393Z,101544.56
2022-12-04T11:08:54.726Z,101546.03
2022-12-04T11:11:28.087Z,101541.78
2022-12-04T11:14:01.369Z,101531.88
2022-12-04T11:16:38.487Z,101534.75
2022-12-04T11:19:18.666Z,101529.00
2022-12-04T11:21:44.995Z,101531.88
2022-12-04T11:24:22.020Z,101531.88
2022-12-04T11:26:48.333Z,101531.88
2022-12-04T11:29:14.722Z,101534.75
2022-12-04T11:31:41.099Z,101529.66
2022-12-04T11:34:08.258Z,101522.50
2022-12-04T11:36:38.008Z,101521.84
2022-12-04T11:39:05.756Z,101524.75
2022-12-04T11:41:32.065Z,101527.72
2022-12-04T11:44:00.601Z,101520.47
2022-12-04T11:46:28.868Z,101527.63
2022-12-04T11:48:55.203Z,101514.69
2022-12-04T11:51:25.493Z,101508.94
2022-12-04T11:53:57.817Z,101516.22
2022-12-04T11:56:24.090Z,101513.44
2022-12-04T11:59:09.028Z,101509.06
2022-12-04T12:01:43.722Z,101505.66
2022-12-04T12:04:18.071Z,101505.00
2022-12-04T12:06:50.948Z,101504.88
2022-12-04T12:09:23.024Z,101505.00
2022-12-04T12:11:55.439Z,101506.50
2022-12-04T12:14:25.034Z,101495.75
2022-12-04T12:19:35.840Z,101500.88
2022-12-04T12:22:18.689Z,101495.00
2022-12-04T12:25:06.044Z,101500.09
2022-12-04T12:27:35.157Z,101499.13
2022-12-04T12:30:04.466Z,101497.97
2022-12-04T12:32:45.981Z,101498.16
2022-12-04T12:35:20.734Z,101500.88
2022-12-04T12:37:51.122Z,101494.03
2022-12-04T12:40:23.331Z,101499.38
2022-12-04T12:42:57.832Z,101500.22
2022-12-04T12:45:38.712Z,101497.44
2022-12-04T12:48:08.064Z,101493.31
2022-12-04T12:50:58.223Z,101499.09
2022-12-04T12:53:36.927Z,101503.78
2022-12-04T12:56:03.653Z,101503.22
2022-12-04T12:58:37.682Z,101493.81
2022-12-04T13:01:05.863Z,101494.03
2022-12-04T13:03:40.906Z,101493.28
2022-12-04T13:06:09.942Z,101487.56
2022-12-04T13:08:47.908Z,101483.81
2022-12-04T13:11:20.273Z,101498.09
2022-12-04T13:13:50.151Z,101501.41
2022-12-04T13:16:49.122Z,101498.97
2022-12-04T13:19:34.644Z,101473.53
2022-12-04T13:22:05.234Z,101476.63
2022-12-04T13:24:50.162Z,101497.03
2022-12-04T13:27:27.842Z,101497.75
2022-12-04T13:30:00.991Z,101489.84
2022-12-04T13:32:33.450Z,101481.41
2022-12-04T13:35:02.887Z,101483.66
2022-12-04T13:37:47.693Z,101472.88
2022-12-04T13:40:26.515Z,101472.13
2022-12-04T13:42:53.017Z,101458.34
2022-12-04T13:45:26.660Z,101451.84
2022-12-04T13:47:59.488Z,101447.66
2022-12-04T13:50:26.247Z,101448.84
2022-12-04T13:52:53.552Z,101445.19
2022-12-04T13:55:22.863Z,101437.63
2022-12-04T13:57:56.122Z,101439.53
2022-12-04T14:00:26.985Z,101434.00
2022-12-04T14:02:54.267Z,101434.41
2022-12-04T14:05:27.983Z,101445.09
2022-12-04T14:08:05.664Z,101440.16
2022-12-04T14:10:37.221Z,101436.75
2022-12-04T14:13:12.535Z,101436.97
2022-12-04T14:15:38.888Z,101438.22
2022-12-04T14:18:10.888Z,101440.84
2022-12-04T14:20:37.227Z,101443.09
2022-12-04T14:23:10.550Z,101443.84
2022-12-04T14:25:38.054Z,101435.81
2022-12-04T14:28:14.361Z,101443.69
2022-12-04T14:30:40.727Z,101446.25
2022-12-04T14:33:07.027Z,101449.50
2022-12-04T14:35:33.351Z,101445.16
2022-12-04T14:38:00.644Z,101445.97
2022-12-04T14:40:27.432Z,101437.59
2022-12-04T14:42:53.751Z,101430.13
2022-12-04T14:45:27.808Z,101430.13
2022-12-04T14:48:00.604Z,101430.13
2022-12-04T14:50:42.131Z,101438.75
2022-12-04T14:53:17.473Z,101432.91
2022-12-04T14:56:07.253Z,101427.16
2022-12-04T14:58:37.081Z,101429.03
2022-12-04T15:01:07.322Z,101435.09
2022-12-04T15:03:36.962Z,101430.34
2022-12-04T15:06:07.272Z,101429.06
2022-12-04T15:08:33.610Z,101426.63
2022-12-04T15:11:18.475Z,101424.00
2022-12-04T15:13:44.832Z,101418.63
2022-12-04T15:16:15.616Z,101419.66
2022-12-04T15:18:42.007Z,101419.75
2022-12-04T15:21:09.012Z,101427.03
2022-12-04T15:23:36.538Z,101426.94
2022-12-04T15:26:18.626Z,101432.41
2022-12-04T15:28:48.857Z,101425.06
2022-12-04T15:31:19.285Z,101428.03
2022-12-04T15:33:45.903Z,101436.59
2022-12-04T15:36:29.071Z,101450.25
2022-12-04T15:38:55.388Z,101446.63
2022-12-04T15:41:32.143Z,101455.06
2022-12-04T15:43:58.484Z,101456.38
2022-12-04T15:46:32.321Z,101457.13
2022-12-04T15:49:16.132Z,101452.00
2022-12-04T15:51:42.605Z,101446.25
2022-12-04T15:54:17.232Z,101451.25
2022-12-04T15:56:43.559Z,101444.09
2022-12-04T15:59:13.110Z,101453.28
2022-12-04T16:01:39.463Z,101450.41
2022-12-04T16:04:05.861Z,101450.41
2022-12-04T16:06:33.320Z,101454.69
2022-12-04T16:09:00.281Z,101448.81
2022-12-04T16:11:30.887Z,101448.91
2022-12-04T16:14:09.210Z,101454.78
2022-12-04T16:16:35.662Z,101450.41
2022-12-04T16:19:15.528Z,101450.41
2022-12-04T16:21:41.835Z,101442.53
2022-12-04T16:24:10.305Z,101449.03
2022-12-04T16:26:36.644Z,101450.59
2022-12-04T16:29:03.003Z,101441.31
2022-12-04T16:31:29.363Z,101455.28
2022-12-04T16:33:55.698Z,101446.53
2022-12-04T16:36:22.007Z,101445.03
2022-12-04T16:38:48.312Z,101446.53
2022-12-04T16:41:15.064Z,101440.56
2022-12-04T16:43:41.439Z,101440.56
2022-12-04T16:46:09.770Z,101437.59
2022-12-04T16:48:36.159Z,101429.03
2022-12-04T16:51:02.504Z,101436.19
2022-12-04T16:53:28.817Z,101423.28
2022-12-04T16:55:55.132Z,101424.75
2022-12-04T16:58:21.445Z,101430.53
2022-12-04T17:00:54.167Z,101441.22
2022-12-04T17:03:21.876Z,101443.47
2022-12-04T17:05:48.221Z,101444.72
2022-12-04T17:08:14.574Z,101432.56
2022-12-04T17:10:40.952Z,101438.31
2022-12-04T17:13:07.410Z,101439.06
2022-12-04T17:15:33.743Z,101433.94
2022-12-04T17:18:00.065Z,101424.00
2022-12-04T17:20:26.422Z,101436.28
2022-12-04T17:22:52.786Z,101432.00
2022-12-04T17:25:19.117Z,101434.03
2022-12-04T17:27:45.451Z,101433.50
2022-12-04T17:30:12.034Z,101436.28
2022-12-04T17:32:38.365Z,101431.81
2022-12-04T17:35:05.020Z,101427.53
2022-12-04T17:37:31.869Z,101428.19
2022-12-04T17:39:58.206Z,101427.53
2022-12-04T17:42:24.538Z,101428.19
2022-12-04T17:44:50.859Z,101428.28
2022-12-04T17:47:17.183Z,101426.22
2022-12-04T17:49:43.536Z,101420.38
2022-12-04T17:52:09.884Z,101424.56
2022-12-04T17:54:36.198Z,101421.66
2022-12-04T17:57:02.567Z,101428.00
2022-12-04T17:59:28.892Z,101422.66
2022-12-04T18:01:55.227Z,101419.69
2022-12-04T18:04:21.559Z,101421.91
2022-12-04T18:06:47.876Z,101416.16
2022-12-04T18:09:15.092Z,101418.19
2022-12-04T18:11:42.274Z,101424.06
2022-12-04T18:14:12.232Z,101413.91
2022-12-04T18:16:42.809Z,101419.03
2022-12-04T18:19:09.692Z,101417.63
2022-12-04T18:21:36.070Z,101415.53
2022-12-04T18:24:02.917Z,101419.69
2022-12-04T18:26:32.073Z,101418.19
2022-12-04T18:28:58.452Z,101426.84
2022-12-04T18:31:24.808Z,101423.97
2022-12-04T18:33:51.172Z,101419.69
2022-12-04T18:36:21.945Z,101419.69
2022-12-04T18:38:52.465Z,101419.88
2022-12-04T18:41:18.801Z,101414.13
2022-12-04T18:43:45.186Z,101410.50
2022-12-04T18:46:12.283Z,101413.91
2022-12-04T18:48:38.689Z,101416.78
2022-12-04T18:51:17.007Z,101416.69
2022-12-04T18:53:43.728Z,101409.44
2022-12-04T18:56:10.056Z,101418.84
2022-12-04T18:58:36.373Z,101426.84
2022-12-04T19:01:09.109Z,101426.94
2022-12-04T19:03:35.481Z,101425.34
2022-12-04T19:06:02.505Z,101430.69
2022-12-04T19:08:33.252Z,101437.06
2022-12-04T19:11:07.682Z,101432.63
2022-12-04T19:13:34.017Z,101432.16
2022-12-04T19:16:00.338Z,101431.41
2022-12-04T19:18:26.778Z,101440.91
2022-12-04T19:20:53.107Z,101439.53
2022-12-04T19:23:19.417Z,101432.41
2022-12-04T19:25:48.757Z,101434.88
2022-12-04T19:28:15.070Z,101432.00
2022-12-04T19:30:41.384Z,101429.94
2022-12-04T19:33:07.693Z,101439.53
2022-12-04T19:35:35.068Z,101442.00
2022-12-04T19:38:14.485Z,101445.56
2022-12-04T19:40:40.826Z,101434.63
2022-12-04T19:43:07.152Z,101440.38
2022-12-04T19:45:33.578Z,101438.59
2022-12-04T19:47:59.921Z,101445.72
2022-12-04T19:50:26.261Z,101443.78
2022-12-04T19:52:52.617Z,101436.56
2022-12-04T19:55:19.001Z,101449.22
2022-12-04T19:57:45.340Z,101441.13
2022-12-04T20:00:11.817Z,101441.47
2022-12-04T20:02:41.082Z,101432.38
2022-12-04T20:05:07.565Z,101440.59
2022-12-04T20:07:33.917Z,101423.38
2022-12-04T20:10:00.594Z,101424.25
2022-12-04T20:12:27.173Z,101422.94
2022-12-04T20:14:53.836Z,101417.28
2022-12-04T20:17:20.169Z,101421.66
2022-12-04T20:19:46.525Z,101419.03
2022-12-04T20:22:12.829Z,101416.88
2022-12-04T20:24:39.187Z,101406.41
2022-12-04T20:27:05.529Z,101410.13
2022-12-04T20:29:31.845Z,101408.66
2022-12-04T20:31:58.167Z,101410.13
2022-12-04T20:34:24.501Z,101404.34
2022-12-04T20:36:50.874Z,101406.50
2022-12-04T20:39:17.531Z,101408.09
2022-12-04T20:41:43.849Z,101404.47
2022-12-04T20:44:12.851Z,101407.34
2022-12-04T20:46:39.300Z,101410.88
2022-12-04T20:49:10.163Z,101402.16
2022-12-04T20:51:37.301Z,101408.66
2022-12-04T20:54:03.662Z,101398.59
2022-12-04T20:56:30.928Z,101399.34
2022-12-04T20:58:57.898Z,101409.38
2022-12-04T21:01:24.774Z,101407.25
2022-12-04T21:03:51.369Z,101404.47
2022-12-04T21:06:19.905Z,101406.81
2022-12-04T21:09:00.327Z,101402.00
2022-12-04T21:11:27.564Z,101399.22
2022-12-04T21:14:12.789Z,101406.47
2022-12-04T21:16:39.140Z,101403.69
2022-12-04T21:19:06.000Z,101397.19
2022-12-04T21:21:32.421Z,101403.56
2022-12-04T21:23:58.724Z,101398.44
2022-12-04T21:26:29.081Z,101399.22
2022-12-04T21:28:56.249Z,101387.69
2022-12-04T21:31:22.663Z,101388.97
2022-12-04T21:33:49.006Z,101388.22
2022-12-04T21:36:15.328Z,101388.84
2022-12-04T21:38:41.650Z,101393.25
2022-12-04T21:41:08.163Z,101393.25
2022-12-04T21:43:34.487Z,101388.97
2022-12-04T21:46:07.469Z,101393.13
2022-12-04T21:48:35.470Z,101385.22
2022-12-04T21:51:05.980Z,101382.25
2022-12-04T21:53:32.329Z,101380.03
2022-12-04T21:55:58.660Z,101378.63
2022-12-04T21:58:25.353Z,101380.78
2022-12-04T22:00:51.697Z,101381.50
2022-12-04T22:03:18.054Z,101378.53
2022-12-04T22:05:44.422Z,101378.53
2022-12-04T22:08:11.108Z,101378.53
2022-12-04T22:10:44.023Z,101371.28
2022-12-04T22:13:10.445Z,101376.94
2022-12-04T22:15:40.257Z,101371.81
2022-12-04T22:18:07.022Z,101370.34
2022-12-04T22:20:33.404Z,101363.81
2022-12-04T22:22:59.725Z,101373.13
2022-12-04T22:25:26.044Z,101368.84
2022-12-04T22:27:52.872Z,101363.72
2022-12-04T22:30:19.310Z,101362.22
2022-12-04T22:32:45.616Z,101370.03
2022-12-04T22:35:11.949Z,101364.91
2022-12-04T22:37:43.931Z,101373.44
2022-12-04T22:40:10.845Z,101364.72
2022-12-04T22:42:37.295Z,101365.47
2022-12-04T22:45:03.624Z,101361.75
2022-12-04T22:47:29.986Z,101357.44
2022-12-04T22:49:56.512Z,101361.75
2022-12-04T22:52:23.002Z,101354.56
2022-12-04T22:54:52.135Z,101363.78
2022-12-04T22:57:18.576Z,101350.75
2022-12-04T22:59:45.009Z,101360.13
2022-12-04T23:02:11.338Z,101360.03
2022-12-04T23:04:37.690Z,101355.03
2022-12-04T23:07:04.108Z,101347.03
2022-12-04T23:09:30.433Z,101348.50
2022-12-04T23:11:56.768Z,101354.94
2022-12-04T23:14:23.256Z,101348.50
2022-12-04T23:16:49.707Z,101350.53
2022-12-04T23:19:16.853Z,101345.53
2022-12-04T23:21:43.244Z,101345.53
2022-12-04T23:24:09.603Z,101354.06
2022-12-04T23:26:36.630Z,101348.19
2022-12-04T23:29:02.971Z,101345.31
2022-12-04T23:31:29.466Z,101343.06
2022-12-04T23:33:55.837Z,101343.78
2022-12-04T23:36:22.200Z,101333.69
2022-12-04T23:38:48.577Z,101349.34
2022-12-04T23:41:18.674Z,101345.09
2022-12-04T23:43:44.985Z,101330.69
2022-12-04T23:46:11.921Z,101343.06
2022-12-04T23:48:41.603Z,101335.72
2022-12-04T23:51:08.058Z,101340.81
2022-12-04T23:53:34.401Z,101338.50
2022-12-04T23:56:02.203Z,101336.34
2022-12-04T23:58:28.530Z,101337.75
